Airfield :
LOGIN :

Register | Disclaimer

   EN    FR    IT 

 










Legend :    VFR   Marginal VFR   IFR   Intensive IFR   Very Intensive IFR
Visi :
Ceiling :
>= 8 km
>= 3000ft
5 to 8 km
1000 to 3000 ft
1500m to 5 km
500 to 1000 ft
800 to 1500m
200 to 500 ft
< 800m
< 200 ft
Symbols :   Thunderstorms  Fog  Heavy snow  Heavy precipitations  Wind > 20 kt
SIGMETs :     Misc.  Thunderstorms  Icing  Turbulence  Mountain Waves  Volcanic Ashes






- Airport Elevation : 686 ft
- IATA code : URS


UUOK - Vostochny

CURRENT METAR :
  • 041830Z 32003MPS CAVOK 04/M09 Q1022 R30/090060 NOSIG RMK QFE748/0997

EXPIRED METARs :
  • 041800Z 32003MPS CAVOK 04/M09 Q1022 R30/090060 NOSIG RMK QFE748/0997
  • 041730Z 33004MPS CAVOK 05/M09 Q1022 R30/090060 NOSIG RMK QFE747/0997
  • 041700Z 32005MPS CAVOK 06/M09 Q1021 R30/090060 NOSIG RMK QFE747/0996
  • 041630Z 32005MPS CAVOK 07/M10 Q1021 R30/090060 NOSIG RMK QFE747/0996
  • 041600Z 32007MPS CAVOK 08/M11 Q1020 R30/090060 NOSIG RMK QFE746/0995
  • 041530Z 32007MPS 9999 FEW033 09/M12 Q1020 R30/090060 NOSIG RMK QFE746/0995

TAF TAF UUOK
Valid from the 04 at 18:00 until the 05 at 03:00 UTC


041700Z 0418/0503 31003MPS CAVOK



MET'MAP, your aeronautical weather chart ! - Copyright ORBIFLY December 2007 - Disclaimer

ORBIFLY MET'MAP TEAM :

Programming & Development : Alexandra Zaïnal
Concept & original design : Baudouin d'Aumeries
Assistance for programming : Marc-Olivier Méhu
Technical & hardware support : Manuel Goepfert

Contact : metmap@orbifly.com




SOURCES & CREDITS :

   NOAA